sensor_id;sensor_type;location;lat;lon;timestamp;temperature;humidity
82001;SHT30;71522;50.870;3.524;2023-08-24T00:00:40;21.00;73.23
82001;SHT30;71522;50.870;3.524;2023-08-24T00:03:09;21.00;73.33
82001;SHT30;71522;50.870;3.524;2023-08-24T00:05:37;20.97;73.26
82001;SHT30;71522;50.870;3.524;2023-08-24T00:08:04;20.98;73.42
82001;SHT30;71522;50.870;3.524;2023-08-24T00:10:30;21.00;73.40
82001;SHT30;71522;50.870;3.524;2023-08-24T00:13:05;21.01;73.40
82001;SHT30;71522;50.870;3.524;2023-08-24T00:15:30;21.03;73.29
82001;SHT30;71522;50.870;3.524;2023-08-24T00:17:59;21.04;73.41
82001;SHT30;71522;50.870;3.524;2023-08-24T00:20:30;21.11;73.11
82001;SHT30;71522;50.870;3.524;2023-08-24T00:22:55;21.10;73.30
82001;SHT30;71522;50.870;3.524;2023-08-24T00:25:21;21.10;73.25
82001;SHT30;71522;50.870;3.524;2023-08-24T00:27:47;21.11;73.21
82001;SHT30;71522;50.870;3.524;2023-08-24T00:30:12;21.11;73.34
82001;SHT30;71522;50.870;3.524;2023-08-24T00:32:43;21.10;73.24
82001;SHT30;71522;50.870;3.524;2023-08-24T00:35:13;21.10;73.49
82001;SHT30;71522;50.870;3.524;2023-08-24T00:37:40;21.12;73.22
82001;SHT30;71522;50.870;3.524;2023-08-24T00:40:08;21.08;73.32
82001;SHT30;71522;50.870;3.524;2023-08-24T00:42:41;21.11;73.40
82001;SHT30;71522;50.870;3.524;2023-08-24T00:45:11;21.11;73.24
82001;SHT30;71522;50.870;3.524;2023-08-24T00:47:40;21.12;73.23
82001;SHT30;71522;50.870;3.524;2023-08-24T00:50:12;21.14;73.15
82001;SHT30;71522;50.870;3.524;2023-08-24T00:52:41;21.12;73.33
82001;SHT30;71522;50.870;3.524;2023-08-24T00:55:08;21.14;73.09
82001;SHT30;71522;50.870;3.524;2023-08-24T00:57:37;21.17;73.24
82001;SHT30;71522;50.870;3.524;2023-08-24T01:00:30;21.12;73.18
82001;SHT30;71522;50.870;3.524;2023-08-24T01:02:57;21.14;73.32
82001;SHT30;71522;50.870;3.524;2023-08-24T01:05:23;21.14;73.49
82001;SHT30;71522;50.870;3.524;2023-08-24T01:07:49;21.17;73.35
82001;SHT30;71522;50.870;3.524;2023-08-24T01:10:16;21.15;73.51
82001;SHT30;71522;50.870;3.524;2023-08-24T01:13:01;21.12;73.73
82001;SHT30;71522;50.870;3.524;2023-08-24T01:15:38;21.11;74.11
82001;SHT30;71522;50.870;3.524;2023-08-24T01:18:11;21.08;74.54
82001;SHT30;71522;50.870;3.524;2023-08-24T01:20:42;21.06;74.53
82001;SHT30;71522;50.870;3.524;2023-08-24T01:26:37;21.07;74.77
82001;SHT30;71522;50.870;3.524;2023-08-24T01:29:05;21.04;74.68
82001;SHT30;71522;50.870;3.524;2023-08-24T01:31:33;21.04;74.78
82001;SHT30;71522;50.870;3.524;2023-08-24T01:34:02;21.03;74.75
82001;SHT30;71522;50.870;3.524;2023-08-24T01:36:28;21.01;74.80
82001;SHT30;71522;50.870;3.524;2023-08-24T01:39:04;21.00;74.94
82001;SHT30;71522;50.870;3.524;2023-08-24T01:41:36;20.93;75.29
82001;SHT30;71522;50.870;3.524;2023-08-24T01:44:06;20.91;75.52
82001;SHT30;71522;50.870;3.524;2023-08-24T01:46:36;20.87;75.16
82001;SHT30;71522;50.870;3.524;2023-08-24T01:49:05;20.87;75.31
82001;SHT30;71522;50.870;3.524;2023-08-24T01:51:33;20.87;75.18
82001;SHT30;71522;50.870;3.524;2023-08-24T01:54:01;20.87;75.16
82001;SHT30;71522;50.870;3.524;2023-08-24T01:56:27;20.84;74.91
82001;SHT30;71522;50.870;3.524;2023-08-24T01:58:53;20.83;74.62
82001;SHT30;71522;50.870;3.524;2023-08-24T02:01:18;20.84;74.58
82001;SHT30;71522;50.870;3.524;2023-08-24T02:03:44;20.79;74.41
82001;SHT30;71522;50.870;3.524;2023-08-24T02:06:10;20.70;74.44
82001;SHT30;71522;50.870;3.524;2023-08-24T02:08:36;20.63;74.78
82001;SHT30;71522;50.870;3.524;2023-08-24T02:11:03;20.56;74.71
82001;SHT30;71522;50.870;3.524;2023-08-24T02:13:29;20.50;74.79
82001;SHT30;71522;50.870;3.524;2023-08-24T02:16:05;20.45;74.81
82001;SHT30;71522;50.870;3.524;2023-08-24T02:18:32;20.43;74.78
82001;SHT30;71522;50.870;3.524;2023-08-24T02:20:58;20.36;74.80
82001;SHT30;71522;50.870;3.524;2023-08-24T02:23:24;20.32;74.74
82001;SHT30;71522;50.870;3.524;2023-08-24T02:25:49;20.32;74.74
82001;SHT30;71522;50.870;3.524;2023-08-24T02:28:15;20.25;74.90
82001;SHT30;71522;50.870;3.524;2023-08-24T02:30:41;20.21;74.92
82001;SHT30;71522;50.870;3.524;2023-08-24T02:33:07;20.14;75.06
82001;SHT30;71522;50.870;3.524;2023-08-24T02:35:33;20.08;75.41
82001;SHT30;71522;50.870;3.524;2023-08-24T02:37:58;20.02;75.19
82001;SHT30;71522;50.870;3.524;2023-08-24T02:40:25;19.97;75.26
82001;SHT30;71522;50.870;3.524;2023-08-24T02:42:51;19.92;75.57
82001;SHT30;71522;50.870;3.524;2023-08-24T02:45:17;19.85;75.99
82001;SHT30;71522;50.870;3.524;2023-08-24T02:47:42;19.82;75.89
82001;SHT30;71522;50.870;3.524;2023-08-24T02:50:09;19.77;75.76
82001;SHT30;71522;50.870;3.524;2023-08-24T02:52:34;19.77;75.94
82001;SHT30;71522;50.870;3.524;2023-08-24T02:55:00;19.70;76.10
82001;SHT30;71522;50.870;3.524;2023-08-24T02:57:26;19.69;76.20
82001;SHT30;71522;50.870;3.524;2023-08-24T02:59:52;19.67;76.46
82001;SHT30;71522;50.870;3.524;2023-08-24T03:02:17;19.70;76.05
82001;SHT30;71522;50.870;3.524;2023-08-24T03:04:44;19.74;76.36
82001;SHT30;71522;50.870;3.524;2023-08-24T03:07:10;19.78;76.28
82001;SHT30;71522;50.870;3.524;2023-08-24T03:09:36;19.78;76.07
82001;SHT30;71522;50.870;3.524;2023-08-24T03:12:02;19.87;76.28
82001;SHT30;71522;50.870;3.524;2023-08-24T03:14:29;19.88;75.60
82001;SHT30;71522;50.870;3.524;2023-08-24T03:16:54;19.90;75.71
82001;SHT30;71522;50.870;3.524;2023-08-24T03:19:20;19.94;75.69
82001;SHT30;71522;50.870;3.524;2023-08-24T03:21:46;19.91;75.76
82001;SHT30;71522;50.870;3.524;2023-08-24T03:24:11;19.94;76.12
82001;SHT30;71522;50.870;3.524;2023-08-24T03:26:37;19.94;75.83
82001;SHT30;71522;50.870;3.524;2023-08-24T03:29:03;19.97;75.62
82001;SHT30;71522;50.870;3.524;2023-08-24T03:31:28;20.02;75.62
82001;SHT30;71522;50.870;3.524;2023-08-24T03:33:54;20.02;75.33
82001;SHT30;71522;50.870;3.524;2023-08-24T03:36:20;20.04;75.61
82001;SHT30;71522;50.870;3.524;2023-08-24T03:38:46;20.05;75.42
82001;SHT30;71522;50.870;3.524;2023-08-24T03:41:13;20.07;75.64
82001;SHT30;71522;50.870;3.524;2023-08-24T03:43:39;20.02;75.87
82001;SHT30;71522;50.870;3.524;2023-08-24T03:46:04;20.04;76.04
82001;SHT30;71522;50.870;3.524;2023-08-24T03:48:32;20.01;75.72
82001;SHT30;71522;50.870;3.524;2023-08-24T03:50:58;20.01;75.73
82001;SHT30;71522;50.870;3.524;2023-08-24T03:53:25;20.02;76.22
82001;SHT30;71522;50.870;3.524;2023-08-24T03:55:51;20.02;76.36
82001;SHT30;71522;50.870;3.524;2023-08-24T03:58:18;19.98;76.22
82001;SHT30;71522;50.870;3.524;2023-08-24T04:00:44;19.97;76.33
82001;SHT30;71522;50.870;3.524;2023-08-24T04:03:12;19.91;77.05
82001;SHT30;71522;50.870;3.524;2023-08-24T04:05:38;19.78;76.89
82001;SHT30;71522;50.870;3.524;2023-08-24T04:08:04;19.70;77.69
82001;SHT30;71522;50.870;3.524;2023-08-24T04:10:31;19.61;77.96
82001;SHT30;71522;50.870;3.524;2023-08-24T04:12:57;19.46;78.66
82001;SHT30;71522;50.870;3.524;2023-08-24T04:15:23;19.37;78.60
82001;SHT30;71522;50.870;3.524;2023-08-24T04:17:49;19.27;79.36
82001;SHT30;71522;50.870;3.524;2023-08-24T04:20:15;19.24;79.76
82001;SHT30;71522;50.870;3.524;2023-08-24T04:22:43;19.26;79.75
82001;SHT30;71522;50.870;3.524;2023-08-24T04:25:08;19.24;79.75
82001;SHT30;71522;50.870;3.524;2023-08-24T04:27:35;19.20;79.74
82001;SHT30;71522;50.870;3.524;2023-08-24T04:30:02;19.18;79.19
82001;SHT30;71522;50.870;3.524;2023-08-24T04:32:47;19.15;78.19
82001;SHT30;71522;50.870;3.524;2023-08-24T04:35:13;19.08;78.00
82001;SHT30;71522;50.870;3.524;2023-08-24T04:37:39;19.06;77.76
82001;SHT30;71522;50.870;3.524;2023-08-24T04:40:06;19.02;77.55
82001;SHT30;71522;50.870;3.524;2023-08-24T04:42:33;19.02;77.54
82001;SHT30;71522;50.870;3.524;2023-08-24T04:44:58;19.01;77.85
82001;SHT30;71522;50.870;3.524;2023-08-24T04:47:24;19.02;78.01
82001;SHT30;71522;50.870;3.524;2023-08-24T04:49:50;18.98;77.66
82001;SHT30;71522;50.870;3.524;2023-08-24T04:52:15;18.94;77.35
82001;SHT30;71522;50.870;3.524;2023-08-24T04:54:41;18.91;77.68
82001;SHT30;71522;50.870;3.524;2023-08-24T04:57:07;18.89;77.89
82001;SHT30;71522;50.870;3.524;2023-08-24T04:59:33;18.82;77.81
82001;SHT30;71522;50.870;3.524;2023-08-24T05:01:59;18.81;77.85
82001;SHT30;71522;50.870;3.524;2023-08-24T05:04:29;18.84;77.94
82001;SHT30;71522;50.870;3.524;2023-08-24T05:06:55;18.88;78.10
82001;SHT30;71522;50.870;3.524;2023-08-24T05:09:20;18.94;77.58
82001;SHT30;71522;50.870;3.524;2023-08-24T05:11:46;19.01;77.65
82001;SHT30;71522;50.870;3.524;2023-08-24T05:14:12;19.03;78.06
82001;SHT30;71522;50.870;3.524;2023-08-24T05:16:39;19.09;77.54
82001;SHT30;71522;50.870;3.524;2023-08-24T05:19:05;19.13;77.48
82001;SHT30;71522;50.870;3.524;2023-08-24T05:21:30;19.20;77.20
82001;SHT30;71522;50.870;3.524;2023-08-24T05:23:56;19.29;77.14
82001;SHT30;71522;50.870;3.524;2023-08-24T05:26:22;19.39;77.07
82001;SHT30;71522;50.870;3.524;2023-08-24T05:28:50;19.50;76.98
82001;SHT30;71522;50.870;3.524;2023-08-24T05:31:16;19.60;76.78
82001;SHT30;71522;50.870;3.524;2023-08-24T05:33:42;19.70;76.56
82001;SHT30;71522;50.870;3.524;2023-08-24T05:36:07;19.80;76.58
82001;SHT30;71522;50.870;3.524;2023-08-24T05:38:33;19.90;76.29
82001;SHT30;71522;50.870;3.524;2023-08-24T05:40:59;19.99;76.27
82001;SHT30;71522;50.870;3.524;2023-08-24T05:43:25;20.07;76.21
82001;SHT30;71522;50.870;3.524;2023-08-24T05:45:51;20.15;76.19
82001;SHT30;71522;50.870;3.524;2023-08-24T05:48:17;20.24;75.75
82001;SHT30;71522;50.870;3.524;2023-08-24T05:50:46;20.30;75.56
82001;SHT30;71522;50.870;3.524;2023-08-24T05:53:13;20.42;75.23
82001;SHT30;71522;50.870;3.524;2023-08-24T05:55:39;20.50;75.16
82001;SHT30;71522;50.870;3.524;2023-08-24T05:58:04;20.65;75.06
82001;SHT30;71522;50.870;3.524;2023-08-24T06:00:30;20.79;74.74
82001;SHT30;71522;50.870;3.524;2023-08-24T06:02:56;20.88;74.38
82001;SHT30;71522;50.870;3.524;2023-08-24T06:05:22;21.04;74.49
82001;SHT30;71522;50.870;3.524;2023-08-24T06:07:53;21.21;74.69
82001;SHT30;71522;50.870;3.524;2023-08-24T06:10:20;21.35;74.77
82001;SHT30;71522;50.870;3.524;2023-08-24T06:12:46;21.49;75.25
82001;SHT30;71522;50.870;3.524;2023-08-24T06:15:12;21.65;74.03
82001;SHT30;71522;50.870;3.524;2023-08-24T06:17:39;21.75;73.83
82001;SHT30;71522;50.870;3.524;2023-08-24T06:20:05;21.88;73.73
82001;SHT30;71522;50.870;3.524;2023-08-24T06:22:31;21.97;73.98
82001;SHT30;71522;50.870;3.524;2023-08-24T06:24:56;22.09;74.54
82001;SHT30;71522;50.870;3.524;2023-08-24T06:27:29;22.21;75.26
82001;SHT30;71522;50.870;3.524;2023-08-24T06:30:20;22.33;74.12
82001;SHT30;71522;50.870;3.524;2023-08-24T06:32:49;22.45;73.73
82001;SHT30;71522;50.870;3.524;2023-08-24T06:35:16;22.62;73.02
82001;SHT30;71522;50.870;3.524;2023-08-24T06:37:58;22.76;72.51
82001;SHT30;71522;50.870;3.524;2023-08-24T06:40:24;22.89;72.25
82001;SHT30;71522;50.870;3.524;2023-08-24T06:43:07;23.03;72.22
82001;SHT30;71522;50.870;3.524;2023-08-24T06:45:36;23.15;71.58
82001;SHT30;71522;50.870;3.524;2023-08-24T06:48:01;23.22;72.26
82001;SHT30;71522;50.870;3.524;2023-08-24T06:50:38;23.30;72.34
82001;SHT30;71522;50.870;3.524;2023-08-24T06:53:14;23.33;71.84
82001;SHT30;71522;50.870;3.524;2023-08-24T06:55:42;23.36;72.47
82001;SHT30;71522;50.870;3.524;2023-08-24T06:58:16;23.30;73.03
82001;SHT30;71522;50.870;3.524;2023-08-24T07:00:41;23.31;72.97
82001;SHT30;71522;50.870;3.524;2023-08-24T07:03:08;23.30;73.23
82001;SHT30;71522;50.870;3.524;2023-08-24T07:05:37;23.29;73.07
82001;SHT30;71522;50.870;3.524;2023-08-24T07:08:06;23.29;73.04
82001;SHT30;71522;50.870;3.524;2023-08-24T07:10:37;23.26;73.03
82001;SHT30;71522;50.870;3.524;2023-08-24T07:13:04;23.23;73.56
82001;SHT30;71522;50.870;3.524;2023-08-24T07:15:33;23.22;72.46
82001;SHT30;71522;50.870;3.524;2023-08-24T07:18:03;23.20;73.16
82001;SHT30;71522;50.870;3.524;2023-08-24T07:20:32;23.10;73.32
82001;SHT30;71522;50.870;3.524;2023-08-24T07:22:58;23.05;73.37
82001;SHT30;71522;50.870;3.524;2023-08-24T07:25:24;22.99;73.36
82001;SHT30;71522;50.870;3.524;2023-08-24T07:27:50;22.95;73.80
82001;SHT30;71522;50.870;3.524;2023-08-24T07:30:16;22.95;73.13
82001;SHT30;71522;50.870;3.524;2023-08-24T07:32:41;22.94;72.69
82001;SHT30;71522;50.870;3.524;2023-08-24T07:35:07;22.91;72.87
82001;SHT30;71522;50.870;3.524;2023-08-24T07:37:33;22.87;73.50
82001;SHT30;71522;50.870;3.524;2023-08-24T07:39:59;22.82;73.78
82001;SHT30;71522;50.870;3.524;2023-08-24T07:42:25;22.78;74.00
82001;SHT30;71522;50.870;3.524;2023-08-24T07:44:51;22.72;73.73
82001;SHT30;71522;50.870;3.524;2023-08-24T07:47:16;22.68;73.39
82001;SHT30;71522;50.870;3.524;2023-08-24T07:49:42;22.69;73.60
82001;SHT30;71522;50.870;3.524;2023-08-24T07:52:11;22.64;73.89
82001;SHT30;71522;50.870;3.524;2023-08-24T07:54:38;22.60;73.75
82001;SHT30;71522;50.870;3.524;2023-08-24T07:57:05;22.55;73.68
82001;SHT30;71522;50.870;3.524;2023-08-24T07:59:35;22.52;73.66
82001;SHT30;71522;50.870;3.524;2023-08-24T08:02:05;22.50;73.70
82001;SHT30;71522;50.870;3.524;2023-08-24T08:04:32;22.43;73.96
82001;SHT30;71522;50.870;3.524;2023-08-24T08:06:58;22.36;74.70
82001;SHT30;71522;50.870;3.524;2023-08-24T08:09:23;22.29;75.79
82001;SHT30;71522;50.870;3.524;2023-08-24T08:11:49;22.21;75.87
82001;SHT30;71522;50.870;3.524;2023-08-24T08:14:22;22.20;75.46
82001;SHT30;71522;50.870;3.524;2023-08-24T08:16:48;22.16;75.08
82001;SHT30;71522;50.870;3.524;2023-08-24T08:22:17;22.09;76.06
82001;SHT30;71522;50.870;3.524;2023-08-24T08:24:44;22.04;76.46
82001;SHT30;71522;50.870;3.524;2023-08-24T08:27:10;21.99;76.86
82001;SHT30;71522;50.870;3.524;2023-08-24T08:29:35;21.96;77.39
82001;SHT30;71522;50.870;3.524;2023-08-24T08:32:25;21.90;77.82
82001;SHT30;71522;50.870;3.524;2023-08-24T08:34:54;21.89;77.61
82001;SHT30;71522;50.870;3.524;2023-08-24T08:37:22;21.88;78.39
82001;SHT30;71522;50.870;3.524;2023-08-24T08:39:48;21.75;79.65
82001;SHT30;71522;50.870;3.524;2023-08-24T08:42:29;21.61;80.12
82001;SHT30;71522;50.870;3.524;2023-08-24T08:44:55;21.44;80.74
82001;SHT30;71522;50.870;3.524;2023-08-24T08:47:21;21.28;81.49
82001;SHT30;71522;50.870;3.524;2023-08-24T08:49:48;21.10;82.15
82001;SHT30;71522;50.870;3.524;2023-08-24T08:52:15;20.87;83.14
82001;SHT30;71522;50.870;3.524;2023-08-24T08:54:42;20.65;84.05
82001;SHT30;71522;50.870;3.524;2023-08-24T08:57:08;20.55;84.90
82001;SHT30;71522;50.870;3.524;2023-08-24T08:59:34;20.49;85.38
82001;SHT30;71522;50.870;3.524;2023-08-24T09:02:02;20.55;85.53
82001;SHT30;71522;50.870;3.524;2023-08-24T09:04:31;20.67;85.18
82001;SHT30;71522;50.870;3.524;2023-08-24T09:06:58;20.83;84.88
82001;SHT30;71522;50.870;3.524;2023-08-24T09:09:27;20.90;84.27
82001;SHT30;71522;50.870;3.524;2023-08-24T09:11:53;21.01;83.86
82001;SHT30;71522;50.870;3.524;2023-08-24T09:14:19;21.08;83.76
82001;SHT30;71522;50.870;3.524;2023-08-24T09:16:45;21.15;83.41
82001;SHT30;71522;50.870;3.524;2023-08-24T09:19:12;21.21;83.26
82001;SHT30;71522;50.870;3.524;2023-08-24T09:21:38;21.27;82.92
82001;SHT30;71522;50.870;3.524;2023-08-24T09:24:06;21.28;83.00
82001;SHT30;71522;50.870;3.524;2023-08-24T09:26:34;21.25;82.21
82001;SHT30;71522;50.870;3.524;2023-08-24T09:29:05;21.27;82.15
82001;SHT30;71522;50.870;3.524;2023-08-24T09:31:41;21.28;82.40
82001;SHT30;71522;50.870;3.524;2023-08-24T09:34:09;21.28;82.61
82001;SHT30;71522;50.870;3.524;2023-08-24T09:36:36;21.25;82.50
82001;SHT30;71522;50.870;3.524;2023-08-24T09:39:03;21.27;82.89
82001;SHT30;71522;50.870;3.524;2023-08-24T09:41:49;21.31;82.21
82001;SHT30;71522;50.870;3.524;2023-08-24T09:44:19;21.34;82.18
82001;SHT30;71522;50.870;3.524;2023-08-24T09:46:58;21.42;81.73
82001;SHT30;71522;50.870;3.524;2023-08-24T09:49:25;21.55;81.45
82001;SHT30;71522;50.870;3.524;2023-08-24T09:51:59;21.69;81.57
82001;SHT30;71522;50.870;3.524;2023-08-24T09:54:45;21.89;80.96
82001;SHT30;71522;50.870;3.524;2023-08-24T09:57:12;22.06;80.96
82001;SHT30;71522;50.870;3.524;2023-08-24T09:59:39;22.30;80.66
82001;SHT30;71522;50.870;3.524;2023-08-24T10:02:16;22.57;79.91
82001;SHT30;71522;50.870;3.524;2023-08-24T10:04:46;22.85;79.07
82001;SHT30;71522;50.870;3.524;2023-08-24T10:07:16;23.18;77.87
82001;SHT30;71522;50.870;3.524;2023-08-24T10:10:02;23.51;77.70
82001;SHT30;71522;50.870;3.524;2023-08-24T10:12:39;23.91;76.42
82001;SHT30;71522;50.870;3.524;2023-08-24T10:15:07;24.22;75.94
82001;SHT30;71522;50.870;3.524;2023-08-24T10:17:36;24.52;75.46
82001;SHT30;71522;50.870;3.524;2023-08-24T10:20:05;24.70;74.83
82001;SHT30;71522;50.870;3.524;2023-08-24T10:22:41;24.86;73.31
82001;SHT30;71522;50.870;3.524;2023-08-24T10:25:09;24.93;73.58
82001;SHT30;71522;50.870;3.524;2023-08-24T10:27:35;24.97;73.12
82001;SHT30;71522;50.870;3.524;2023-08-24T10:30:01;24.97;72.47
82001;SHT30;71522;50.870;3.524;2023-08-24T10:32:28;24.98;72.51
82001;SHT30;71522;50.870;3.524;2023-08-24T10:35:08;25.00;72.70
82001;SHT30;71522;50.870;3.524;2023-08-24T10:37:38;25.02;72.32
82001;SHT30;71522;50.870;3.524;2023-08-24T10:40:37;25.03;72.97
82001;SHT30;71522;50.870;3.524;2023-08-24T10:43:05;25.07;72.19
82001;SHT30;71522;50.870;3.524;2023-08-24T10:45:56;25.15;73.06
82001;SHT30;71522;50.870;3.524;2023-08-24T10:48:30;25.18;71.11
82001;SHT30;71522;50.870;3.524;2023-08-24T10:53:55;25.21;71.94
82001;SHT30;71522;50.870;3.524;2023-08-24T10:56:38;25.23;70.81
82001;SHT30;71522;50.870;3.524;2023-08-24T10:59:24;25.24;71.18
82001;SHT30;71522;50.870;3.524;2023-08-24T11:02:33;25.20;71.23
82001;SHT30;71522;50.870;3.524;2023-08-24T11:07:57;25.11;71.25
82001;SHT30;71522;50.870;3.524;2023-08-24T11:10:47;24.86;72.09
82001;SHT30;71522;50.870;3.524;2023-08-24T11:13:15;24.72;71.56
82001;SHT30;71522;50.870;3.524;2023-08-24T11:16:09;24.59;71.88
82001;SHT30;71522;50.870;3.524;2023-08-24T11:18:55;24.51;72.72
82001;SHT30;71522;50.870;3.524;2023-08-24T11:21:21;24.49;72.48
82001;SHT30;71522;50.870;3.524;2023-08-24T11:23:54;24.39;72.37
82001;SHT30;71522;50.870;3.524;2023-08-24T11:26:21;24.35;72.78
82001;SHT30;71522;50.870;3.524;2023-08-24T11:28:53;24.33;72.81
82001;SHT30;71522;50.870;3.524;2023-08-24T11:31:19;24.30;73.05
82001;SHT30;71522;50.870;3.524;2023-08-24T11:33:45;24.28;73.37
82001;SHT30;71522;50.870;3.524;2023-08-24T11:36:10;24.30;73.09
82001;SHT30;71522;50.870;3.524;2023-08-24T11:38:42;24.28;73.54
82001;SHT30;71522;50.870;3.524;2023-08-24T11:41:18;24.26;73.74
82001;SHT30;71522;50.870;3.524;2023-08-24T11:43:55;24.30;73.81
82001;SHT30;71522;50.870;3.524;2023-08-24T11:46:37;24.22;72.85
82001;SHT30;71522;50.870;3.524;2023-08-24T11:49:05;24.19;73.42
82001;SHT30;71522;50.870;3.524;2023-08-24T11:51:31;24.14;72.86
82001;SHT30;71522;50.870;3.524;2023-08-24T11:54:00;24.05;73.30
82001;SHT30;71522;50.870;3.524;2023-08-24T11:56:26;24.05;72.64
82001;SHT30;71522;50.870;3.524;2023-08-24T11:58:53;24.01;72.51
82001;SHT30;71522;50.870;3.524;2023-08-24T12:01:20;24.05;72.85
82001;SHT30;71522;50.870;3.524;2023-08-24T12:03:46;24.12;72.64
82001;SHT30;71522;50.870;3.524;2023-08-24T12:06:14;24.15;72.37
82001;SHT30;71522;50.870;3.524;2023-08-24T12:08:47;24.22;72.77
82001;SHT30;71522;50.870;3.524;2023-08-24T12:11:37;24.40;72.48
82001;SHT30;71522;50.870;3.524;2023-08-24T12:14:04;24.51;72.03
82001;SHT30;71522;50.870;3.524;2023-08-24T12:16:33;24.60;71.71
82001;SHT30;71522;50.870;3.524;2023-08-24T12:19:00;24.65;71.62
82001;SHT30;71522;50.870;3.524;2023-08-24T12:21:31;24.70;71.23
82001;SHT30;71522;50.870;3.524;2023-08-24T12:24:03;24.76;70.87
82001;SHT30;71522;50.870;3.524;2023-08-24T12:26:38;24.74;71.01
82001;SHT30;71522;50.870;3.524;2023-08-24T12:29:06;24.73;71.27
82001;SHT30;71522;50.870;3.524;2023-08-24T12:31:33;24.67;71.66
82001;SHT30;71522;50.870;3.524;2023-08-24T12:34:01;24.56;71.72
82001;SHT30;71522;50.870;3.524;2023-08-24T12:36:36;24.48;71.84
82001;SHT30;71522;50.870;3.524;2023-08-24T12:39:02;24.46;71.97
82001;SHT30;71522;50.870;3.524;2023-08-24T12:41:36;24.51;72.05
82001;SHT30;71522;50.870;3.524;2023-08-24T12:44:01;24.55;71.80
82001;SHT30;71522;50.870;3.524;2023-08-24T12:46:34;24.43;71.79
82001;SHT30;71522;50.870;3.524;2023-08-24T12:49:01;24.39;71.60
82001;SHT30;71522;50.870;3.524;2023-08-24T12:51:27;24.32;71.46
82001;SHT30;71522;50.870;3.524;2023-08-24T12:53:53;24.35;71.71
82001;SHT30;71522;50.870;3.524;2023-08-24T12:56:19;24.43;71.38
82001;SHT30;71522;50.870;3.524;2023-08-24T12:58:45;24.45;71.27
82001;SHT30;71522;50.870;3.524;2023-08-24T13:01:12;24.56;71.34
82001;SHT30;71522;50.870;3.524;2023-08-24T13:03:38;24.73;71.23
82001;SHT30;71522;50.870;3.524;2023-08-24T13:06:05;24.93;70.54
82001;SHT30;71522;50.870;3.524;2023-08-24T13:08:31;25.20;69.55
82001;SHT30;71522;50.870;3.524;2023-08-24T13:10:58;25.37;68.96
82001;SHT30;71522;50.870;3.524;2023-08-24T13:13:24;25.55;69.21
82001;SHT30;71522;50.870;3.524;2023-08-24T13:15:53;25.76;67.93
82001;SHT30;71522;50.870;3.524;2023-08-24T13:18:20;25.92;68.15
82001;SHT30;71522;50.870;3.524;2023-08-24T13:20:45;26.13;68.04
82001;SHT30;71522;50.870;3.524;2023-08-24T13:23:11;26.41;66.94
82001;SHT30;71522;50.870;3.524;2023-08-24T13:25:37;26.65;67.85
82001;SHT30;71522;50.870;3.524;2023-08-24T13:28:03;26.99;66.94
82001;SHT30;71522;50.870;3.524;2023-08-24T13:30:29;27.23;65.67
82001;SHT30;71522;50.870;3.524;2023-08-24T13:32:55;27.39;66.18
82001;SHT30;71522;50.870;3.524;2023-08-24T13:35:21;27.46;65.07
82001;SHT30;71522;50.870;3.524;2023-08-24T13:37:48;27.42;67.00
82001;SHT30;71522;50.870;3.524;2023-08-24T13:40:13;27.42;65.82
82001;SHT30;71522;50.870;3.524;2023-08-24T13:42:39;27.30;64.06
82001;SHT30;71522;50.870;3.524;2023-08-24T13:45:06;27.09;65.00
82001;SHT30;71522;50.870;3.524;2023-08-24T13:47:32;26.82;64.22
82001;SHT30;71522;50.870;3.524;2023-08-24T13:49:58;26.67;65.59
82001;SHT30;71522;50.870;3.524;2023-08-24T13:52:24;26.55;65.73
82001;SHT30;71522;50.870;3.524;2023-08-24T13:54:50;26.54;67.03
82001;SHT30;71522;50.870;3.524;2023-08-24T13:57:16;26.48;65.97
82001;SHT30;71522;50.870;3.524;2023-08-24T13:59:41;26.51;66.03
82001;SHT30;71522;50.870;3.524;2023-08-24T14:02:07;26.41;65.55
82001;SHT30;71522;50.870;3.524;2023-08-24T14:04:33;26.27;65.98
82001;SHT30;71522;50.870;3.524;2023-08-24T14:07:00;26.17;66.69
82001;SHT30;71522;50.870;3.524;2023-08-24T14:09:25;26.00;66.17
82001;SHT30;71522;50.870;3.524;2023-08-24T14:11:52;25.76;67.45
82001;SHT30;71522;50.870;3.524;2023-08-24T14:14:18;25.65;67.75
82001;SHT30;71522;50.870;3.524;2023-08-24T14:16:45;25.46;67.91
82001;SHT30;71522;50.870;3.524;2023-08-24T14:19:12;25.30;68.47
82001;SHT30;71522;50.870;3.524;2023-08-24T14:21:37;25.21;68.77
82001;SHT30;71522;50.870;3.524;2023-08-24T14:24:03;25.21;68.73
82001;SHT30;71522;50.870;3.524;2023-08-24T14:26:29;25.25;68.62
82001;SHT30;71522;50.870;3.524;2023-08-24T14:29:01;25.34;69.42
82001;SHT30;71522;50.870;3.524;2023-08-24T14:31:52;25.48;69.65
82001;SHT30;71522;50.870;3.524;2023-08-24T14:34:18;25.66;68.33
82001;SHT30;71522;50.870;3.524;2023-08-24T14:36:44;25.78;69.16
82001;SHT30;71522;50.870;3.524;2023-08-24T14:39:09;25.99;68.42
82001;SHT30;71522;50.870;3.524;2023-08-24T14:41:35;26.13;67.19
82001;SHT30;71522;50.870;3.524;2023-08-24T14:44:04;26.26;67.22
82001;SHT30;71522;50.870;3.524;2023-08-24T14:46:32;26.43;66.66
82001;SHT30;71522;50.870;3.524;2023-08-24T14:48:59;26.57;66.65
82001;SHT30;71522;50.870;3.524;2023-08-24T14:54:13;27.03;67.21
82001;SHT30;71522;50.870;3.524;2023-08-24T14:56:40;27.15;65.41
82001;SHT30;71522;50.870;3.524;2023-08-24T14:59:06;27.27;67.40
82001;SHT30;71522;50.870;3.524;2023-08-24T15:01:32;27.40;66.01
82001;SHT30;71522;50.870;3.524;2023-08-24T15:03:58;27.53;66.11
82001;SHT30;71522;50.870;3.524;2023-08-24T15:06:24;27.67;64.39
82001;SHT30;71522;50.870;3.524;2023-08-24T15:08:51;28.02;64.03
82001;SHT30;71522;50.870;3.524;2023-08-24T15:11:23;28.22;65.40
82001;SHT30;71522;50.870;3.524;2023-08-24T15:13:49;28.45;63.19
82001;SHT30;71522;50.870;3.524;2023-08-24T15:16:15;28.42;60.98
82001;SHT30;71522;50.870;3.524;2023-08-24T15:18:41;28.56;61.09
82001;SHT30;71522;50.870;3.524;2023-08-24T15:21:06;29.07;60.83
82001;SHT30;71522;50.870;3.524;2023-08-24T15:23:33;29.47;59.35
82001;SHT30;71522;50.870;3.524;2023-08-24T15:26:01;29.45;58.99
82001;SHT30;71522;50.870;3.524;2023-08-24T15:28:36;29.47;59.97
82001;SHT30;71522;50.870;3.524;2023-08-24T15:31:08;29.38;59.03
82001;SHT30;71522;50.870;3.524;2023-08-24T15:33:35;29.39;59.21
82001;SHT30;71522;50.870;3.524;2023-08-24T15:36:01;29.72;59.52
82001;SHT30;71522;50.870;3.524;2023-08-24T15:38:47;30.16;57.38
82001;SHT30;71522;50.870;3.524;2023-08-24T15:41:12;30.55;57.54
82001;SHT30;71522;50.870;3.524;2023-08-24T15:43:39;31.05;58.80
82001;SHT30;71522;50.870;3.524;2023-08-24T15:46:05;31.32;57.09
82001;SHT30;71522;50.870;3.524;2023-08-24T15:48:31;31.67;54.03
82001;SHT30;71522;50.870;3.524;2023-08-24T15:50:58;32.00;53.48
82001;SHT30;71522;50.870;3.524;2023-08-24T15:53:26;32.41;53.89